sensor_id;sensor_type;location;lat;lon;timestamp;pressure;altitude;pressure_sealevel;temperature;humidity
11499;BME280;5806;48.748;9.278;2024-01-30T00:01:39;102182.30;;;7.87;86.82
11499;BME280;5806;48.748;9.278;2024-01-30T00:04:06;102187.89;;;7.75;87.82
11499;BME280;5806;48.748;9.278;2024-01-30T00:06:34;102184.62;;;7.79;87.17
11499;BME280;5806;48.748;9.278;2024-01-30T00:09:01;102183.30;;;7.75;86.82
11499;BME280;5806;48.748;9.278;2024-01-30T00:11:29;102178.19;;;7.62;88.31
11499;BME280;5806;48.748;9.278;2024-01-30T00:13:56;102174.64;;;7.61;88.29
11499;BME280;5806;48.748;9.278;2024-01-30T00:16:25;102176.36;;;7.73;87.79
11499;BME280;5806;48.748;9.278;2024-01-30T00:18:52;102174.14;;;7.72;87.31
11499;BME280;5806;48.748;9.278;2024-01-30T00:21:20;102166.84;;;7.58;87.81
11499;BME280;5806;48.748;9.278;2024-01-30T00:23:48;102162.91;;;7.86;87.60
11499;BME280;5806;48.748;9.278;2024-01-30T00:26:15;102168.59;;;7.80;87.14
11499;BME280;5806;48.748;9.278;2024-01-30T00:28:43;102163.33;;;7.79;86.68
11499;BME280;5806;48.748;9.278;2024-01-30T00:31:11;102167.87;;;7.72;87.27
11499;BME280;5806;48.748;9.278;2024-01-30T00:33:41;102161.14;;;7.78;87.71
11499;BME280;5806;48.748;9.278;2024-01-30T00:36:09;102160.41;;;7.95;86.42
11499;BME280;5806;48.748;9.278;2024-01-30T00:38:37;102164.81;;;7.85;86.89
11499;BME280;5806;48.748;9.278;2024-01-30T00:41:05;102161.98;;;7.93;86.24
11499;BME280;5806;48.748;9.278;2024-01-30T00:43:32;102157.49;;;7.96;86.24
11499;BME280;5806;48.748;9.278;2024-01-30T00:46:00;102157.48;;;7.71;87.65
11499;BME280;5806;48.748;9.278;2024-01-30T00:48:27;102154.98;;;7.80;87.61
11499;BME280;5806;48.748;9.278;2024-01-30T00:50:54;102155.64;;;8.07;86.15
11499;BME280;5806;48.748;9.278;2024-01-30T00:53:22;102153.27;;;7.94;86.65
11499;BME280;5806;48.748;9.278;2024-01-30T00:55:49;102158.55;;;7.81;87.10
11499;BME280;5806;48.748;9.278;2024-01-30T00:58:17;102161.94;;;7.68;87.77
11499;BME280;5806;48.748;9.278;2024-01-30T01:00:45;102154.34;;;7.78;87.28
11499;BME280;5806;48.748;9.278;2024-01-30T01:03:13;102154.47;;;7.81;87.33
11499;BME280;5806;48.748;9.278;2024-01-30T01:05:40;102153.94;;;7.96;86.53
11499;BME280;5806;48.748;9.278;2024-01-30T01:08:07;102155.41;;;7.88;86.56
11499;BME280;5806;48.748;9.278;2024-01-30T01:10:35;102151.38;;;7.84;87.07
11499;BME280;5806;48.748;9.278;2024-01-30T01:13:02;102150.99;;;7.72;87.30
11499;BME280;5806;48.748;9.278;2024-01-30T01:15:30;102148.92;;;7.89;87.03
11499;BME280;5806;48.748;9.278;2024-01-30T01:17:57;102149.45;;;8.13;86.18
11499;BME280;5806;48.748;9.278;2024-01-30T01:20:25;102153.30;;;7.79;87.10
11499;BME280;5806;48.748;9.278;2024-01-30T01:22:52;102151.26;;;7.67;87.35
11499;BME280;5806;48.748;9.278;2024-01-30T01:25:20;102150.02;;;7.84;87.27
11499;BME280;5806;48.748;9.278;2024-01-30T01:27:47;102154.12;;;7.94;87.20
11499;BME280;5806;48.748;9.278;2024-01-30T01:30:17;102155.75;;;7.99;86.44
11499;BME280;5806;48.748;9.278;2024-01-30T01:32:52;102145.73;;;8.10;85.90
11499;BME280;5806;48.748;9.278;2024-01-30T01:35:23;102151.51;;;7.86;86.95
11499;BME280;5806;48.748;9.278;2024-01-30T01:37:54;102152.95;;;7.93;87.62
11499;BME280;5806;48.748;9.278;2024-01-30T01:40:25;102147.84;;;8.04;86.71
11499;BME280;5806;48.748;9.278;2024-01-30T01:42:54;102148.77;;;8.26;85.30
11499;BME280;5806;48.748;9.278;2024-01-30T01:45:21;102152.24;;;8.20;85.09
11499;BME280;5806;48.748;9.278;2024-01-30T01:47:51;102143.70;;;8.08;86.74
11499;BME280;5806;48.748;9.278;2024-01-30T01:50:20;102147.67;;;8.41;84.75
11499;BME280;5806;48.748;9.278;2024-01-30T01:52:49;102151.87;;;8.23;85.77
11499;BME280;5806;48.748;9.278;2024-01-30T01:55:17;102154.89;;;8.28;85.03
11499;BME280;5806;48.748;9.278;2024-01-30T01:57:48;102149.95;;;8.13;86.29
11499;BME280;5806;48.748;9.278;2024-01-30T02:00:16;102145.25;;;8.07;86.44
11499;BME280;5806;48.748;9.278;2024-01-30T02:02:44;102148.64;;;8.23;85.71
11499;BME280;5806;48.748;9.278;2024-01-30T02:05:13;102146.97;;;8.08;86.26
11499;BME280;5806;48.748;9.278;2024-01-30T02:07:41;102142.69;;;7.95;87.15
11499;BME280;5806;48.748;9.278;2024-01-30T02:10:09;102138.97;;;8.21;86.29
11499;BME280;5806;48.748;9.278;2024-01-30T02:12:37;102144.30;;;8.04;87.31
11499;BME280;5806;48.748;9.278;2024-01-30T02:15:05;102136.62;;;8.03;87.02
11499;BME280;5806;48.748;9.278;2024-01-30T02:17:34;102137.86;;;8.01;87.06
11499;BME280;5806;48.748;9.278;2024-01-30T02:20:01;102134.76;;;8.29;85.94
11499;BME280;5806;48.748;9.278;2024-01-30T02:22:29;102133.53;;;8.06;87.22
11499;BME280;5806;48.748;9.278;2024-01-30T02:24:57;102127.11;;;8.14;86.71
11499;BME280;5806;48.748;9.278;2024-01-30T02:27:25;102127.37;;;8.19;86.36
11499;BME280;5806;48.748;9.278;2024-01-30T02:29:52;102122.93;;;8.22;86.64
11499;BME280;5806;48.748;9.278;2024-01-30T02:32:20;102131.24;;;8.35;86.22
11499;BME280;5806;48.748;9.278;2024-01-30T02:34:47;102126.39;;;8.41;85.58
11499;BME280;5806;48.748;9.278;2024-01-30T02:37:14;102124.59;;;8.48;84.57
11499;BME280;5806;48.748;9.278;2024-01-30T02:39:42;102127.69;;;8.66;83.47
11499;BME280;5806;48.748;9.278;2024-01-30T02:42:09;102126.71;;;8.42;84.87
11499;BME280;5806;48.748;9.278;2024-01-30T02:44:37;102122.27;;;8.20;86.18
11499;BME280;5806;48.748;9.278;2024-01-30T02:47:04;102120.94;;;8.30;85.84
11499;BME280;5806;48.748;9.278;2024-01-30T02:49:32;102122.69;;;8.38;85.60
11499;BME280;5806;48.748;9.278;2024-01-30T02:51:59;102120.40;;;8.31;85.92
11499;BME280;5806;48.748;9.278;2024-01-30T02:54:26;102118.59;;;8.59;83.86
11499;BME280;5806;48.748;9.278;2024-01-30T02:56:54;102118.84;;;8.53;84.04
11499;BME280;5806;48.748;9.278;2024-01-30T02:59:21;102111.97;;;8.47;84.63
11499;BME280;5806;48.748;9.278;2024-01-30T03:01:49;102110.88;;;8.62;83.81
11499;BME280;5806;48.748;9.278;2024-01-30T03:04:16;102110.82;;;8.56;83.72
11499;BME280;5806;48.748;9.278;2024-01-30T03:06:46;102110.73;;;8.39;84.97
11499;BME280;5806;48.748;9.278;2024-01-30T03:09:15;102105.27;;;8.81;82.49
11499;BME280;5806;48.748;9.278;2024-01-30T03:11:42;102112.02;;;8.85;82.19
11499;BME280;5806;48.748;9.278;2024-01-30T03:14:10;102101.76;;;8.76;82.60
11499;BME280;5806;48.748;9.278;2024-01-30T03:16:38;102102.66;;;8.83;82.25
11499;BME280;5806;48.748;9.278;2024-01-30T03:19:07;102101.00;;;8.72;82.47
11499;BME280;5806;48.748;9.278;2024-01-30T03:21:35;102101.69;;;8.80;82.31
11499;BME280;5806;48.748;9.278;2024-01-30T03:24:03;102103.00;;;8.74;82.42
11499;BME280;5806;48.748;9.278;2024-01-30T03:26:30;102101.30;;;8.83;81.91
11499;BME280;5806;48.748;9.278;2024-01-30T03:28:57;102102.09;;;8.88;81.57
11499;BME280;5806;48.748;9.278;2024-01-30T03:31:25;102099.98;;;8.90;81.40
11499;BME280;5806;48.748;9.278;2024-01-30T03:33:53;102099.86;;;8.87;81.56
11499;BME280;5806;48.748;9.278;2024-01-30T03:36:20;102095.53;;;8.82;81.52
11499;BME280;5806;48.748;9.278;2024-01-30T03:38:47;102090.53;;;8.75;81.99
11499;BME280;5806;48.748;9.278;2024-01-30T03:41:15;102088.70;;;8.82;81.67
11499;BME280;5806;48.748;9.278;2024-01-30T03:43:42;102090.84;;;8.76;82.11
11499;BME280;5806;48.748;9.278;2024-01-30T03:46:11;102086.20;;;8.70;82.31
11499;BME280;5806;48.748;9.278;2024-01-30T03:48:39;102083.59;;;8.73;82.13
11499;BME280;5806;48.748;9.278;2024-01-30T03:51:07;102079.28;;;8.85;81.49
11499;BME280;5806;48.748;9.278;2024-01-30T03:53:34;102086.75;;;8.76;81.77
11499;BME280;5806;48.748;9.278;2024-01-30T03:56:02;102081.07;;;8.61;83.11
11499;BME280;5806;48.748;9.278;2024-01-30T03:58:29;102084.05;;;8.66;82.43
11499;BME280;5806;48.748;9.278;2024-01-30T04:00:57;102081.39;;;8.62;82.51
11499;BME280;5806;48.748;9.278;2024-01-30T04:03:24;102088.33;;;8.64;82.47
11499;BME280;5806;48.748;9.278;2024-01-30T04:05:54;102087.48;;;8.74;82.10
11499;BME280;5806;48.748;9.278;2024-01-30T04:08:21;102078.28;;;8.65;83.19
11499;BME280;5806;48.748;9.278;2024-01-30T04:10:49;102082.95;;;8.60;82.82
11499;BME280;5806;48.748;9.278;2024-01-30T04:13:16;102080.68;;;8.43;84.32
11499;BME280;5806;48.748;9.278;2024-01-30T04:15:44;102080.42;;;8.48;83.68
11499;BME280;5806;48.748;9.278;2024-01-30T04:18:11;102077.94;;;8.53;83.37
11499;BME280;5806;48.748;9.278;2024-01-30T04:20:39;102075.21;;;8.74;82.15
11499;BME280;5806;48.748;9.278;2024-01-30T04:23:06;102077.67;;;8.80;81.91
11499;BME280;5806;48.748;9.278;2024-01-30T04:25:33;102072.70;;;8.62;83.07
11499;BME280;5806;48.748;9.278;2024-01-30T04:28:01;102067.31;;;8.58;82.96
11499;BME280;5806;48.748;9.278;2024-01-30T04:30:28;102070.62;;;8.54;83.71
11499;BME280;5806;48.748;9.278;2024-01-30T04:32:56;102070.81;;;8.52;83.67
11499;BME280;5806;48.748;9.278;2024-01-30T04:35:23;102071.94;;;8.26;85.08
11499;BME280;5806;48.748;9.278;2024-01-30T04:37:52;102069.50;;;8.17;85.65
11499;BME280;5806;48.748;9.278;2024-01-30T04:40:20;102067.31;;;8.58;83.90
11499;BME280;5806;48.748;9.278;2024-01-30T04:42:48;102070.13;;;8.44;84.18
11499;BME280;5806;48.748;9.278;2024-01-30T04:45:15;102068.61;;;8.31;84.68
11499;BME280;5806;48.748;9.278;2024-01-30T04:47:43;102066.10;;;8.04;85.59
11499;BME280;5806;48.748;9.278;2024-01-30T04:50:10;102065.59;;;8.05;86.40
11499;BME280;5806;48.748;9.278;2024-01-30T04:52:38;102062.39;;;8.37;84.98
11499;BME280;5806;48.748;9.278;2024-01-30T04:55:05;102072.17;;;8.52;84.68
11499;BME280;5806;48.748;9.278;2024-01-30T04:57:33;102064.83;;;8.63;84.32
11499;BME280;5806;48.748;9.278;2024-01-30T05:00:00;102067.83;;;8.96;82.47
11499;BME280;5806;48.748;9.278;2024-01-30T05:02:28;102071.51;;;8.71;83.04
11499;BME280;5806;48.748;9.278;2024-01-30T05:04:55;102067.87;;;8.64;83.59
11499;BME280;5806;48.748;9.278;2024-01-30T05:07:25;102071.42;;;8.48;83.75
11499;BME280;5806;48.748;9.278;2024-01-30T05:09:52;102072.25;;;8.27;84.94
11499;BME280;5806;48.748;9.278;2024-01-30T05:12:20;102075.77;;;8.32;85.10
11499;BME280;5806;48.748;9.278;2024-01-30T05:14:48;102077.70;;;8.27;85.08
11499;BME280;5806;48.748;9.278;2024-01-30T05:17:15;102077.29;;;8.09;85.78
11499;BME280;5806;48.748;9.278;2024-01-30T05:19:43;102074.08;;;7.95;86.09
11499;BME280;5806;48.748;9.278;2024-01-30T05:22:11;102075.54;;;7.77;87.10
11499;BME280;5806;48.748;9.278;2024-01-30T05:24:40;102073.70;;;7.63;87.74
11499;BME280;5806;48.748;9.278;2024-01-30T05:27:08;102073.34;;;7.62;87.36
11499;BME280;5806;48.748;9.278;2024-01-30T05:29:36;102072.98;;;7.65;87.44
11499;BME280;5806;48.748;9.278;2024-01-30T05:32:04;102074.77;;;7.58;87.99
11499;BME280;5806;48.748;9.278;2024-01-30T05:34:33;102069.61;;;7.48;88.07
11499;BME280;5806;48.748;9.278;2024-01-30T05:37:00;102072.38;;;7.44;88.33
11499;BME280;5806;48.748;9.278;2024-01-30T05:39:28;102070.70;;;7.43;88.67
11499;BME280;5806;48.748;9.278;2024-01-30T05:41:55;102072.25;;;7.42;88.56
11499;BME280;5806;48.748;9.278;2024-01-30T05:44:23;102072.48;;;7.36;88.70
11499;BME280;5806;48.748;9.278;2024-01-30T05:46:50;102073.44;;;7.29;88.90
11499;BME280;5806;48.748;9.278;2024-01-30T05:49:18;102076.53;;;7.26;90.18
11499;BME280;5806;48.748;9.278;2024-01-30T05:51:45;102084.37;;;7.25;89.93
11499;BME280;5806;48.748;9.278;2024-01-30T05:54:12;102063.08;;;7.43;89.80
11499;BME280;5806;48.748;9.278;2024-01-30T05:56:40;102062.33;;;7.59;88.10
11499;BME280;5806;48.748;9.278;2024-01-30T05:59:07;102070.16;;;7.83;87.31
11499;BME280;5806;48.748;9.278;2024-01-30T06:01:35;102068.44;;;7.97;86.63
11499;BME280;5806;48.748;9.278;2024-01-30T06:04:02;102068.00;;;8.04;86.16
11499;BME280;5806;48.748;9.278;2024-01-30T06:06:29;102065.25;;;8.29;85.27
11499;BME280;5806;48.748;9.278;2024-01-30T06:08:57;102059.86;;;8.25;85.51
11499;BME280;5806;48.748;9.278;2024-01-30T06:11:24;102061.09;;;8.33;85.20
11499;BME280;5806;48.748;9.278;2024-01-30T06:13:52;102066.70;;;8.10;86.62
11499;BME280;5806;48.748;9.278;2024-01-30T06:16:19;102067.69;;;8.13;86.37
11499;BME280;5806;48.748;9.278;2024-01-30T06:18:48;102066.92;;;8.40;84.88
11499;BME280;5806;48.748;9.278;2024-01-30T06:21:15;102068.89;;;8.36;84.56
11499;BME280;5806;48.748;9.278;2024-01-30T06:23:43;102061.88;;;8.48;84.45
11499;BME280;5806;48.748;9.278;2024-01-30T06:26:10;102062.48;;;8.60;83.75
11499;BME280;5806;48.748;9.278;2024-01-30T06:28:38;102054.57;;;8.55;83.81
11499;BME280;5806;48.748;9.278;2024-01-30T06:31:05;102065.75;;;8.39;84.46
11499;BME280;5806;48.748;9.278;2024-01-30T06:33:32;102067.52;;;8.00;86.37
11499;BME280;5806;48.748;9.278;2024-01-30T06:36:00;102075.42;;;7.85;86.88
11499;BME280;5806;48.748;9.278;2024-01-30T06:38:27;102060.91;;;7.99;86.99
11499;BME280;5806;48.748;9.278;2024-01-30T06:40:55;102062.86;;;7.94;87.00
11499;BME280;5806;48.748;9.278;2024-01-30T06:43:22;102055.75;;;7.79;87.39
11499;BME280;5806;48.748;9.278;2024-01-30T06:45:50;102053.30;;;7.73;87.81
11499;BME280;5806;48.748;9.278;2024-01-30T06:48:18;102051.67;;;7.54;88.57
11499;BME280;5806;48.748;9.278;2024-01-30T06:50:45;102054.23;;;7.66;88.45
11499;BME280;5806;48.748;9.278;2024-01-30T06:53:14;102052.91;;;7.87;87.85
11499;BME280;5806;48.748;9.278;2024-01-30T06:55:41;102056.28;;;8.24;86.76
11499;BME280;5806;48.748;9.278;2024-01-30T06:58:09;102052.03;;;8.01;87.68
11499;BME280;5806;48.748;9.278;2024-01-30T07:00:36;102044.17;;;8.02;87.79
11499;BME280;5806;48.748;9.278;2024-01-30T07:03:04;102042.23;;;7.96;88.15
11499;BME280;5806;48.748;9.278;2024-01-30T07:05:32;102044.41;;;7.75;88.83
11499;BME280;5806;48.748;9.278;2024-01-30T07:07:59;102047.34;;;7.95;88.17
11499;BME280;5806;48.748;9.278;2024-01-30T07:10:27;102048.99;;;8.10;87.42
11499;BME280;5806;48.748;9.278;2024-01-30T07:12:54;102048.45;;;8.25;86.82
11499;BME280;5806;48.748;9.278;2024-01-30T07:15:22;102055.80;;;8.00;87.94
11499;BME280;5806;48.748;9.278;2024-01-30T07:17:49;102056.75;;;7.92;88.26
11499;BME280;5806;48.748;9.278;2024-01-30T07:20:16;102057.53;;;7.86;88.73
11499;BME280;5806;48.748;9.278;2024-01-30T07:22:45;102063.66;;;7.74;89.95
11499;BME280;5806;48.748;9.278;2024-01-30T07:25:14;102062.67;;;7.96;88.84
11499;BME280;5806;48.748;9.278;2024-01-30T07:27:43;102068.62;;;7.85;89.40
11499;BME280;5806;48.748;9.278;2024-01-30T07:30:10;102063.98;;;8.00;90.38
11499;BME280;5806;48.748;9.278;2024-01-30T07:32:38;102067.37;;;8.33;87.80
11499;BME280;5806;48.748;9.278;2024-01-30T07:35:05;102071.39;;;8.37;87.06
11499;BME280;5806;48.748;9.278;2024-01-30T07:37:33;102066.09;;;8.50;86.54
11499;BME280;5806;48.748;9.278;2024-01-30T07:40:01;102071.70;;;8.70;85.11
11499;BME280;5806;48.748;9.278;2024-01-30T07:42:29;102075.08;;;8.61;85.94
11499;BME280;5806;48.748;9.278;2024-01-30T07:44:56;102082.30;;;8.69;85.71
11499;BME280;5806;48.748;9.278;2024-01-30T07:47:23;102079.95;;;8.66;85.88
11499;BME280;5806;48.748;9.278;2024-01-30T07:49:51;102084.27;;;8.81;85.24
11499;BME280;5806;48.748;9.278;2024-01-30T07:52:19;102087.44;;;8.68;85.97
11499;BME280;5806;48.748;9.278;2024-01-30T07:54:49;102083.69;;;8.86;84.95
11499;BME280;5806;48.748;9.278;2024-01-30T07:57:17;102081.42;;;8.79;85.26
11499;BME280;5806;48.748;9.278;2024-01-30T07:59:45;102085.20;;;8.78;85.12
11499;BME280;5806;48.748;9.278;2024-01-30T08:02:13;102079.72;;;8.88;84.71
11499;BME280;5806;48.748;9.278;2024-01-30T08:04:41;102080.38;;;8.90;84.59
11499;BME280;5806;48.748;9.278;2024-01-30T08:07:08;102086.20;;;8.98;84.18
11499;BME280;5806;48.748;9.278;2024-01-30T08:09:36;102089.08;;;9.07;83.60
11499;BME280;5806;48.748;9.278;2024-01-30T08:12:03;102095.47;;;9.03;84.07
11499;BME280;5806;48.748;9.278;2024-01-30T08:14:31;102103.05;;;9.08;83.69
11499;BME280;5806;48.748;9.278;2024-01-30T08:16:58;102100.23;;;9.12;83.12
11499;BME280;5806;48.748;9.278;2024-01-30T08:19:26;102091.16;;;9.15;82.86
11499;BME280;5806;48.748;9.278;2024-01-30T08:21:53;102102.81;;;9.20;82.70
11499;BME280;5806;48.748;9.278;2024-01-30T08:24:22;102097.82;;;9.23;82.33
11499;BME280;5806;48.748;9.278;2024-01-30T08:26:49;102093.45;;;9.29;82.05
11499;BME280;5806;48.748;9.278;2024-01-30T08:29:16;102094.54;;;9.34;82.46
11499;BME280;5806;48.748;9.278;2024-01-30T08:31:44;102086.36;;;9.24;82.62
11499;BME280;5806;48.748;9.278;2024-01-30T08:34:12;102091.81;;;9.24;82.88
11499;BME280;5806;48.748;9.278;2024-01-30T08:36:39;102085.06;;;9.30;82.87
11499;BME280;5806;48.748;9.278;2024-01-30T08:39:07;102082.11;;;9.15;84.04
11499;BME280;5806;48.748;9.278;2024-01-30T08:41:35;102076.17;;;9.05;84.27
11499;BME280;5806;48.748;9.278;2024-01-30T08:44:02;102076.48;;;9.06;84.18
11499;BME280;5806;48.748;9.278;2024-01-30T08:46:30;102079.77;;;9.12;84.28
11499;BME280;5806;48.748;9.278;2024-01-30T08:48:58;102083.59;;;9.17;84.13
11499;BME280;5806;48.748;9.278;2024-01-30T08:51:25;102090.26;;;9.25;83.37
11499;BME280;5806;48.748;9.278;2024-01-30T08:53:52;102096.26;;;9.25;84.07
11499;BME280;5806;48.748;9.278;2024-01-30T08:56:23;102099.06;;;9.21;83.84
11499;BME280;5806;48.748;9.278;2024-01-30T08:58:51;102111.91;;;9.27;84.00
11499;BME280;5806;48.748;9.278;2024-01-30T09:01:18;102111.63;;;9.32;83.71
11499;BME280;5806;48.748;9.278;2024-01-30T09:03:45;102109.67;;;9.37;83.63
11499;BME280;5806;48.748;9.278;2024-01-30T09:06:13;102118.52;;;9.45;82.92
11499;BME280;5806;48.748;9.278;2024-01-30T09:08:40;102113.80;;;9.43;83.26
11499;BME280;5806;48.748;9.278;2024-01-30T09:11:15;102111.17;;;9.63;81.95
11499;BME280;5806;48.748;9.278;2024-01-30T09:13:42;102116.16;;;9.70;81.61
11499;BME280;5806;48.748;9.278;2024-01-30T09:16:10;102111.14;;;9.80;81.46
11499;BME280;5806;48.748;9.278;2024-01-30T09:18:37;102124.41;;;9.83;81.64
11499;BME280;5806;48.748;9.278;2024-01-30T09:21:05;102123.23;;;9.81;81.76
11499;BME280;5806;48.748;9.278;2024-01-30T09:23:32;102117.88;;;9.84;81.33
11499;BME280;5806;48.748;9.278;2024-01-30T09:26:00;102131.57;;;9.90;81.40
11499;BME280;5806;48.748;9.278;2024-01-30T09:28:28;102133.17;;;9.89;81.20
11499;BME280;5806;48.748;9.278;2024-01-30T09:30:56;102132.91;;;10.01;80.80
11499;BME280;5806;48.748;9.278;2024-01-30T09:33:23;102135.09;;;10.01;80.69
11499;BME280;5806;48.748;9.278;2024-01-30T09:35:51;102136.41;;;10.05;80.26
11499;BME280;5806;48.748;9.278;2024-01-30T09:38:18;102141.78;;;10.09;79.83
11499;BME280;5806;48.748;9.278;2024-01-30T09:40:49;102151.72;;;10.17;79.97
11499;BME280;5806;48.748;9.278;2024-01-30T09:43:17;102147.62;;;10.17;79.44
11499;BME280;5806;48.748;9.278;2024-01-30T09:45:47;102149.60;;;10.19;79.61
11499;BME280;5806;48.748;9.278;2024-01-30T09:48:15;102142.37;;;10.22;79.22
11499;BME280;5806;48.748;9.278;2024-01-30T09:50:43;102147.00;;;10.28;78.89
11499;BME280;5806;48.748;9.278;2024-01-30T09:53:11;102150.02;;;10.23;79.18
11499;BME280;5806;48.748;9.278;2024-01-30T09:55:42;102153.61;;;10.23;79.26
11499;BME280;5806;48.748;9.278;2024-01-30T09:58:11;102158.02;;;10.24;78.77
11499;BME280;5806;48.748;9.278;2024-01-30T10:00:39;102161.51;;;10.22;79.05
11499;BME280;5806;48.748;9.278;2024-01-30T10:03:09;102158.59;;;10.30;78.80
11499;BME280;5806;48.748;9.278;2024-01-30T10:05:38;102160.06;;;10.33;78.61
11499;BME280;5806;48.748;9.278;2024-01-30T10:08:07;102161.32;;;10.30;78.99
11499;BME280;5806;48.748;9.278;2024-01-30T10:10:35;102163.00;;;10.31;78.51
11499;BME280;5806;48.748;9.278;2024-01-30T10:13:02;102165.95;;;10.36;78.69
11499;BME280;5806;48.748;9.278;2024-01-30T10:15:30;102167.12;;;10.38;78.19
11499;BME280;5806;48.748;9.278;2024-01-30T10:17:57;102167.68;;;10.44;78.03
11499;BME280;5806;48.748;9.278;2024-01-30T10:20:25;102161.37;;;10.50;77.94
11499;BME280;5806;48.748;9.278;2024-01-30T10:22:53;102169.06;;;10.50;78.12
11499;BME280;5806;48.748;9.278;2024-01-30T10:25:22;102160.55;;;10.56;77.98
11499;BME280;5806;48.748;9.278;2024-01-30T10:27:53;102166.44;;;10.59;77.77
11499;BME280;5806;48.748;9.278;2024-01-30T10:30:22;102165.39;;;10.60;78.36
11499;BME280;5806;48.748;9.278;2024-01-30T10:32:49;102167.16;;;10.57;78.06
11499;BME280;5806;48.748;9.278;2024-01-30T10:35:17;102162.24;;;10.63;77.91
11499;BME280;5806;48.748;9.278;2024-01-30T10:37:49;102164.02;;;10.67;77.97
11499;BME280;5806;48.748;9.278;2024-01-30T10:40:17;102163.52;;;10.67;77.57
11499;BME280;5806;48.748;9.278;2024-01-30T10:42:46;102163.31;;;10.75;77.60
11499;BME280;5806;48.748;9.278;2024-01-30T10:45:14;102159.11;;;10.73;77.95
11499;BME280;5806;48.748;9.278;2024-01-30T10:47:52;102154.69;;;10.72;77.31
11499;BME280;5806;48.748;9.278;2024-01-30T10:50:20;102153.52;;;10.70;77.48
11499;BME280;5806;48.748;9.278;2024-01-30T10:52:48;102150.79;;;10.70;77.70
11499;BME280;5806;48.748;9.278;2024-01-30T10:55:16;102147.61;;;10.73;77.51
11499;BME280;5806;48.748;9.278;2024-01-30T10:57:45;102160.06;;;10.76;77.91
11499;BME280;5806;48.748;9.278;2024-01-30T11:00:13;102153.53;;;10.77;78.67
11499;BME280;5806;48.748;9.278;2024-01-30T11:02:43;102156.27;;;10.83;77.71
11499;BME280;5806;48.748;9.278;2024-01-30T11:05:12;102153.63;;;10.86;77.54
11499;BME280;5806;48.748;9.278;2024-01-30T11:07:41;102148.16;;;10.92;77.60
11499;BME280;5806;48.748;9.278;2024-01-30T11:10:09;102141.01;;;10.98;77.05
11499;BME280;5806;48.748;9.278;2024-01-30T11:12:41;102131.31;;;11.02;77.22
11499;BME280;5806;48.748;9.278;2024-01-30T11:15:11;102132.89;;;11.00;77.19
11499;BME280;5806;48.748;9.278;2024-01-30T11:17:50;102126.70;;;11.02;77.05
11499;BME280;5806;48.748;9.278;2024-01-30T11:20:31;102127.63;;;11.05;77.15
11499;BME280;5806;48.748;9.278;2024-01-30T11:22:59;102130.16;;;11.07;77.19
11499;BME280;5806;48.748;9.278;2024-01-30T11:25:28;102137.20;;;11.12;76.90
11499;BME280;5806;48.748;9.278;2024-01-30T11:27:57;102141.74;;;11.15;77.32
11499;BME280;5806;48.748;9.278;2024-01-30T11:30:30;102146.59;;;11.26;77.17
11499;BME280;5806;48.748;9.278;2024-01-30T11:33:08;102141.33;;;11.18;77.54
11499;BME280;5806;48.748;9.278;2024-01-30T11:35:41;102133.21;;;11.21;77.65
11499;BME280;5806;48.748;9.278;2024-01-30T11:38:11;102137.92;;;11.29;77.32
11499;BME280;5806;48.748;9.278;2024-01-30T11:40:39;102132.98;;;11.35;76.70
11499;BME280;5806;48.748;9.278;2024-01-30T11:43:08;102129.48;;;11.37;76.73
11499;BME280;5806;48.748;9.278;2024-01-30T11:45:36;102123.59;;;11.40;76.42
11499;BME280;5806;48.748;9.278;2024-01-30T11:48:04;102126.02;;;11.39;76.90
11499;BME280;5806;48.748;9.278;2024-01-30T11:50:33;102124.44;;;11.41;76.66
11499;BME280;5806;48.748;9.278;2024-01-30T11:53:01;102125.48;;;11.46;76.20
11499;BME280;5806;48.748;9.278;2024-01-30T11:55:30;102125.48;;;11.46;76.37
11499;BME280;5806;48.748;9.278;2024-01-30T11:57:59;102119.25;;;11.48;76.45
11499;BME280;5806;48.748;9.278;2024-01-30T12:00:27;102122.27;;;11.56;76.06
11499;BME280;5806;48.748;9.278;2024-01-30T12:02:56;102125.98;;;11.52;76.44
11499;BME280;5806;48.748;9.278;2024-01-30T12:05:27;102136.83;;;11.56;76.32
11499;BME280;5806;48.748;9.278;2024-01-30T12:07:55;102139.16;;;11.53;77.02
11499;BME280;5806;48.748;9.278;2024-01-30T12:10:24;102131.58;;;11.48;77.55
11499;BME280;5806;48.748;9.278;2024-01-30T12:12:52;102137.45;;;11.52;76.97
11499;BME280;5806;48.748;9.278;2024-01-30T12:15:21;102131.15;;;11.64;76.21
11499;BME280;5806;48.748;9.278;2024-01-30T12:17:49;102126.27;;;11.60;76.61
11499;BME280;5806;48.748;9.278;2024-01-30T12:20:18;102131.45;;;11.65;76.48
11499;BME280;5806;48.748;9.278;2024-01-30T12:22:47;102127.53;;;11.70;76.22
11499;BME280;5806;48.748;9.278;2024-01-30T12:25:20;102132.52;;;11.64;76.54
11499;BME280;5806;48.748;9.278;2024-01-30T12:27:50;102123.97;;;11.70;76.63
11499;BME280;5806;48.748;9.278;2024-01-30T12:30:19;102124.06;;;11.72;76.19
11499;BME280;5806;48.748;9.278;2024-01-30T12:32:49;102127.41;;;11.74;76.75
11499;BME280;5806;48.748;9.278;2024-01-30T12:35:18;102128.48;;;11.73;76.58
11499;BME280;5806;48.748;9.278;2024-01-30T12:37:47;102131.31;;;11.76;76.38
11499;BME280;5806;48.748;9.278;2024-01-30T12:40:15;102136.89;;;11.78;76.97
11499;BME280;5806;48.748;9.278;2024-01-30T12:42:43;102131.73;;;11.79;76.76
11499;BME280;5806;48.748;9.278;2024-01-30T12:45:14;102136.06;;;11.78;76.47
11499;BME280;5806;48.748;9.278;2024-01-30T12:47:42;102135.97;;;11.75;76.22
11499;BME280;5806;48.748;9.278;2024-01-30T12:50:09;102135.42;;;11.76;75.96
11499;BME280;5806;48.748;9.278;2024-01-30T12:52:38;102130.16;;;11.74;76.23
11499;BME280;5806;48.748;9.278;2024-01-30T12:55:06;102145.55;;;11.82;77.62
11499;BME280;5806;48.748;9.278;2024-01-30T12:57:33;102143.23;;;11.79;76.86
11499;BME280;5806;48.748;9.278;2024-01-30T13:00:01;102142.68;;;11.86;75.67
11499;BME280;5806;48.748;9.278;2024-01-30T13:02:28;102137.27;;;11.95;75.58
11499;BME280;5806;48.748;9.278;2024-01-30T13:04:57;102137.91;;;11.97;75.65
11499;BME280;5806;48.748;9.278;2024-01-30T13:07:25;102135.49;;;11.91;76.59
11499;BME280;5806;48.748;9.278;2024-01-30T13:09:52;102141.09;;;11.87;77.12
11499;BME280;5806;48.748;9.278;2024-01-30T13:12:20;102147.28;;;11.92;77.23